createdAt,value
2022-12-28T00:01:43.849Z,72.54
2022-12-28T00:04:13.484Z,72.26
2022-12-28T00:06:41.127Z,72.38
2022-12-28T00:09:09.040Z,72.15
2022-12-28T00:11:35.812Z,72.28
2022-12-28T00:14:02.600Z,72.31
2022-12-28T00:16:30.928Z,72.26
2022-12-28T00:18:58.599Z,72.27
2022-12-28T00:21:26.608Z,72.26
2022-12-28T00:23:54.383Z,72.42
2022-12-28T00:26:26.837Z,72.33
2022-12-28T00:28:59.763Z,72.22
2022-12-28T00:31:30.404Z,72.49
2022-12-28T00:33:57.148Z,72.35
2022-12-28T00:36:23.903Z,72.44
2022-12-28T00:38:50.727Z,72.41
2022-12-28T00:41:18.309Z,72.70
2022-12-28T00:43:46.243Z,72.60
2022-12-28T00:46:13.396Z,72.49
2022-12-28T00:48:40.153Z,72.50
2022-12-28T00:51:15.656Z,72.62
2022-12-28T00:53:43.519Z,72.65
2022-12-28T00:56:11.992Z,72.59
2022-12-28T00:58:39.150Z,72.72
2022-12-28T01:01:06.725Z,72.66
2022-12-28T01:03:33.563Z,72.68
2022-12-28T01:06:00.366Z,72.64
2022-12-28T01:08:27.199Z,72.82
2022-12-28T01:10:53.887Z,72.70
2022-12-28T01:13:24.767Z,72.89
2022-12-28T01:15:51.520Z,72.86
2022-12-28T01:18:19.996Z,73.03
2022-12-28T01:20:46.840Z,72.91
2022-12-28T01:23:13.483Z,72.96
2022-12-28T01:25:41.859Z,72.97
2022-12-28T01:28:08.616Z,72.98
2022-12-28T01:30:39.174Z,73.24
2022-12-28T01:33:05.980Z,73.02
2022-12-28T01:35:32.818Z,73.10
2022-12-28T01:37:59.522Z,73.24
2022-12-28T01:40:26.404Z,73.29
2022-12-28T01:42:53.206Z,73.36
2022-12-28T01:45:21.439Z,73.56
2022-12-28T01:47:50.756Z,73.35
2022-12-28T01:50:21.399Z,73.30
2022-12-28T01:52:56.992Z,73.45
2022-12-28T01:55:35.028Z,73.58
2022-12-28T01:58:08.074Z,73.69
2022-12-28T02:00:35.753Z,73.78
2022-12-28T02:03:13.301Z,73.96
2022-12-28T02:05:42.942Z,73.93
2022-12-28T02:08:09.652Z,73.81
2022-12-28T02:10:41.474Z,74.19
2022-12-28T02:13:13.073Z,74.16
2022-12-28T02:15:39.780Z,74.41
2022-12-28T02:18:06.994Z,74.47
2022-12-28T02:20:52.191Z,74.76
2022-12-28T02:23:22.068Z,74.75
2022-12-28T02:26:07.287Z,74.87
2022-12-28T02:28:52.636Z,74.98
2022-12-28T02:31:31.031Z,74.96
2022-12-28T02:34:24.143Z,75.29
2022-12-28T02:36:55.478Z,75.25
2022-12-28T02:39:25.883Z,75.57
2022-12-28T02:41:53.277Z,75.51
2022-12-28T02:44:39.359Z,75.86
2022-12-28T02:47:31.544Z,75.92
2022-12-28T02:50:08.317Z,75.79
2022-12-28T02:52:36.181Z,75.83
2022-12-28T02:55:40.973Z,75.97
2022-12-28T02:58:34.155Z,76.09
2022-12-28T03:01:02.103Z,76.22
2022-12-28T03:03:44.207Z,76.37
2022-12-28T03:06:33.364Z,76.33
2022-12-28T03:09:03.439Z,76.53
2022-12-28T03:11:39.010Z,76.63
2022-12-28T03:14:08.311Z,76.63
2022-12-28T03:16:56.636Z,76.62
2022-12-28T03:19:48.155Z,76.95
2022-12-28T03:22:33.776Z,76.72
2022-12-28T03:25:20.785Z,76.89
2022-12-28T03:28:09.561Z,77.10
2022-12-28T03:30:58.020Z,77.30
2022-12-28T03:33:25.099Z,77.46
2022-12-28T03:35:54.877Z,77.58
2022-12-28T03:38:31.899Z,77.69
2022-12-28T03:41:02.557Z,77.75
2022-12-28T03:43:44.941Z,78.06
2022-12-28T03:46:15.341Z,78.31
2022-12-28T03:48:44.497Z,78.30
2022-12-28T03:51:13.844Z,78.53
2022-12-28T03:53:43.649Z,78.62
2022-12-28T03:56:14.987Z,78.74
2022-12-28T03:58:44.087Z,79.09
2022-12-28T04:01:11.045Z,79.19
2022-12-28T04:03:40.542Z,79.37
2022-12-28T04:06:08.129Z,79.08
2022-12-28T04:08:35.309Z,79.46
2022-12-28T04:11:04.943Z,79.57
2022-12-28T04:13:32.877Z,79.58
2022-12-28T04:16:12.958Z,79.79
2022-12-28T04:18:43.056Z,79.62
2022-12-28T04:21:10.878Z,79.75
2022-12-28T04:23:39.957Z,80.08
2022-12-28T04:26:16.614Z,79.87
2022-12-28T04:28:45.278Z,80.20
2022-12-28T04:31:20.776Z,80.12
2022-12-28T04:33:58.292Z,80.43
2022-12-28T04:36:28.881Z,80.23
2022-12-28T04:38:58.168Z,80.43
2022-12-28T04:41:24.975Z,80.70
2022-12-28T04:43:53.969Z,80.96
2022-12-28T04:46:20.777Z,81.00
2022-12-28T04:48:47.543Z,81.03
2022-12-28T04:51:25.317Z,81.07
2022-12-28T04:53:52.598Z,81.14
2022-12-28T04:56:20.330Z,81.15
2022-12-28T04:58:47.460Z,81.41
2022-12-28T05:01:15.841Z,81.41
2022-12-28T05:03:43.440Z,81.37
2022-12-28T05:06:14.299Z,81.58
2022-12-28T05:08:41.175Z,81.35
2022-12-28T05:11:09.161Z,81.38
2022-12-28T05:13:35.941Z,81.33
2022-12-28T05:16:07.140Z,81.29
2022-12-28T05:18:35.998Z,81.66
2022-12-28T05:21:03.798Z,81.59
2022-12-28T05:23:31.271Z,81.64
2022-12-28T05:25:58.271Z,81.62
2022-12-28T05:28:26.392Z,81.61
2022-12-28T05:30:53.571Z,81.68
2022-12-28T05:33:20.610Z,81.93
2022-12-28T05:35:47.325Z,81.68
2022-12-28T05:38:14.079Z,81.99
2022-12-28T05:40:40.820Z,82.03
2022-12-28T05:43:07.588Z,81.99
2022-12-28T05:45:34.400Z,81.99
2022-12-28T05:48:01.290Z,81.98
2022-12-28T05:50:28.099Z,82.00
2022-12-28T05:52:56.334Z,82.09
2022-12-28T05:55:23.110Z,82.11
2022-12-28T05:57:51.431Z,82.23
2022-12-28T06:00:18.262Z,82.62
2022-12-28T06:02:45.281Z,82.56
2022-12-28T06:05:12.018Z,82.59
2022-12-28T06:07:38.863Z,82.84
2022-12-28T06:10:05.946Z,82.91
2022-12-28T06:12:32.740Z,83.19
2022-12-28T06:14:59.713Z,83.11
2022-12-28T06:17:26.532Z,83.17
2022-12-28T06:19:53.754Z,83.17
2022-12-28T06:22:24.738Z,83.41
2022-12-28T06:24:51.730Z,83.25
2022-12-28T06:27:18.397Z,83.31
2022-12-28T06:29:45.268Z,83.42
2022-12-28T06:32:11.973Z,83.50
2022-12-28T06:34:38.877Z,83.64
2022-12-28T06:37:05.602Z,83.57
2022-12-28T06:39:32.349Z,83.48
2022-12-28T06:41:59.062Z,83.62
2022-12-28T06:44:25.911Z,83.85
2022-12-28T06:46:52.538Z,83.70
2022-12-28T06:49:19.342Z,83.85
2022-12-28T06:51:46.105Z,83.95
2022-12-28T06:54:12.803Z,83.86
2022-12-28T06:56:39.757Z,83.89
2022-12-28T06:59:06.784Z,83.95
2022-12-28T07:01:35.246Z,84.02
2022-12-28T07:04:03.308Z,83.99
2022-12-28T07:06:30.692Z,84.30
2022-12-28T07:09:01.614Z,84.34
2022-12-28T07:11:29.259Z,84.34
2022-12-28T07:13:56.406Z,84.31
2022-12-28T07:16:24.323Z,84.22
2022-12-28T07:18:51.071Z,84.10
2022-12-28T07:21:22.508Z,83.83
2022-12-28T07:23:51.105Z,83.84
2022-12-28T07:26:20.662Z,83.93
2022-12-28T07:28:48.367Z,84.03
2022-12-28T07:31:16.924Z,83.99
2022-12-28T07:33:45.193Z,84.15
2022-12-28T07:36:13.248Z,83.95
2022-12-28T07:38:40.161Z,84.14
2022-12-28T07:41:07.925Z,84.02
2022-12-28T07:43:34.856Z,84.29
2022-12-28T07:46:02.629Z,84.41
2022-12-28T07:48:31.518Z,84.49
2022-12-28T07:50:58.610Z,84.37
2022-12-28T07:53:25.475Z,84.26
2022-12-28T07:55:58.936Z,84.43
2022-12-28T07:58:25.918Z,84.51
2022-12-28T08:00:53.643Z,84.09
2022-12-28T08:03:20.914Z,84.27
2022-12-28T08:05:47.615Z,83.83
2022-12-28T08:08:14.510Z,83.87
2022-12-28T08:10:41.282Z,83.68
2022-12-28T08:13:08.824Z,83.64
2022-12-28T08:15:35.523Z,83.70
2022-12-28T08:18:02.440Z,83.43
2022-12-28T08:20:29.187Z,83.23
2022-12-28T08:22:55.908Z,83.10
2022-12-28T08:25:22.688Z,82.41
2022-12-28T08:27:49.848Z,81.88
2022-12-28T08:30:16.598Z,81.29
2022-12-28T08:32:43.614Z,81.05
2022-12-28T08:35:10.282Z,81.03
2022-12-28T08:37:37.467Z,80.90
2022-12-28T08:40:04.582Z,80.78
2022-12-28T08:42:31.950Z,80.88
2022-12-28T08:44:58.657Z,81.09
2022-12-28T08:47:25.504Z,81.12
2022-12-28T08:49:52.155Z,81.12
2022-12-28T08:52:18.968Z,81.20
2022-12-28T08:54:45.728Z,81.48
2022-12-28T08:57:12.450Z,81.31
2022-12-28T08:59:39.156Z,81.33
2022-12-28T09:02:07.051Z,81.22
2022-12-28T09:04:33.799Z,81.16
2022-12-28T09:07:00.557Z,81.22
2022-12-28T09:09:27.318Z,81.42
2022-12-28T09:11:54.164Z,81.20
2022-12-28T09:14:24.213Z,81.10
2022-12-28T09:16:53.252Z,80.84
2022-12-28T09:19:21.243Z,81.18
2022-12-28T09:21:49.428Z,80.90
2022-12-28T09:24:16.346Z,81.08
2022-12-28T09:26:43.971Z,80.72
2022-12-28T09:29:12.208Z,80.54
2022-12-28T09:31:40.952Z,80.51
2022-12-28T09:36:56.673Z,79.67
2022-12-28T09:39:25.201Z,79.40
2022-12-28T09:41:55.181Z,79.14
2022-12-28T09:44:30.924Z,78.95
2022-12-28T09:47:03.398Z,78.59
2022-12-28T09:49:36.407Z,78.12
2022-12-28T09:52:15.581Z,78.00
2022-12-28T09:54:42.582Z,77.52
2022-12-28T09:57:16.872Z,77.00
2022-12-28T09:59:44.776Z,75.89
2022-12-28T10:02:26.297Z,73.61
2022-12-28T10:04:53.455Z,72.94
2022-12-28T10:07:20.250Z,72.29
2022-12-28T10:09:47.976Z,70.20
2022-12-28T10:12:19.899Z,69.47
2022-12-28T10:14:47.759Z,69.04
2022-12-28T10:17:15.317Z,68.95
2022-12-28T10:19:46.793Z,68.41
2022-12-28T10:22:19.045Z,67.78
2022-12-28T10:24:47.508Z,67.62
2022-12-28T10:27:22.894Z,65.98
2022-12-28T10:29:53.787Z,66.63
2022-12-28T10:32:21.287Z,66.59
2022-12-28T10:34:53.775Z,66.54
2022-12-28T10:37:21.922Z,65.94
2022-12-28T10:39:58.895Z,66.40
2022-12-28T10:42:28.393Z,66.71
2022-12-28T10:45:00.419Z,67.04
2022-12-28T10:47:36.098Z,67.09
2022-12-28T10:50:36.084Z,67.05
2022-12-28T10:52:56.345Z,67.07
2022-12-28T10:55:26.889Z,66.42
2022-12-28T10:58:27.486Z,66.14
2022-12-28T11:00:41.761Z,66.25
2022-12-28T11:03:19.436Z,66.36
2022-12-28T11:05:47.996Z,66.02
2022-12-28T11:08:23.482Z,66.12
2022-12-28T11:10:56.482Z,65.77
2022-12-28T11:13:23.360Z,65.09
2022-12-28T11:15:50.068Z,64.95
2022-12-28T11:18:18.148Z,64.29
2022-12-28T11:20:46.365Z,64.57
2022-12-28T11:23:18.335Z,64.28
2022-12-28T11:25:45.541Z,64.20
2022-12-28T11:28:13.937Z,63.99
2022-12-28T11:30:40.935Z,63.78
2022-12-28T11:33:23.301Z,63.59
2022-12-28T11:35:57.526Z,63.13
2022-12-28T11:38:40.289Z,62.90
2022-12-28T11:41:09.855Z,61.73
2022-12-28T11:43:39.937Z,59.07
2022-12-28T11:46:33.165Z,59.37
2022-12-28T11:49:01.332Z,59.73
2022-12-28T11:51:29.383Z,59.39
2022-12-28T11:54:07.667Z,59.09
2022-12-28T11:56:46.510Z,58.31
2022-12-28T11:59:22.755Z,55.81
2022-12-28T12:01:50.834Z,55.79
2022-12-28T12:04:28.540Z,55.52
2022-12-28T12:06:55.249Z,55.68
2022-12-28T12:09:21.936Z,55.91
2022-12-28T12:11:49.602Z,56.96
2022-12-28T12:14:17.915Z,57.16
2022-12-28T12:16:50.380Z,56.01
2022-12-28T12:19:28.891Z,55.43
2022-12-28T12:22:00.771Z,54.84
2022-12-28T12:24:30.729Z,54.91
2022-12-28T12:27:01.251Z,55.24
2022-12-28T12:29:31.389Z,54.23
2022-12-28T12:32:06.592Z,51.90
2022-12-28T12:34:44.908Z,50.66
2022-12-28T12:37:14.787Z,50.50
2022-12-28T12:39:50.608Z,49.86
2022-12-28T12:42:35.779Z,50.37
2022-12-28T12:45:18.170Z,48.91
2022-12-28T12:48:03.529Z,47.21
2022-12-28T12:50:34.288Z,46.74
2022-12-28T12:53:04.075Z,46.25
2022-12-28T12:55:42.524Z,46.46
2022-12-28T12:58:17.649Z,47.95
2022-12-28T13:00:53.626Z,49.29
2022-12-28T13:03:50.044Z,48.60
2022-12-28T13:06:20.264Z,47.32
2022-12-28T13:08:53.261Z,47.74
2022-12-28T13:11:21.520Z,46.63
2022-12-28T13:13:50.020Z,45.93
2022-12-28T13:16:22.048Z,46.23
2022-12-28T13:18:57.712Z,46.17
2022-12-28T13:21:26.048Z,45.88
2022-12-28T13:23:53.213Z,44.67
2022-12-28T13:26:26.086Z,44.26
2022-12-28T13:28:57.399Z,43.94
2022-12-28T13:31:29.277Z,44.20
2022-12-28T13:33:56.797Z,44.99
2022-12-28T13:36:23.575Z,46.05
2022-12-28T13:39:00.325Z,47.49
2022-12-28T13:41:28.123Z,48.47
2022-12-28T13:44:10.702Z,49.45
2022-12-28T13:46:39.601Z,50.35
2022-12-28T13:49:06.668Z,50.64
2022-12-28T13:51:37.651Z,51.36
2022-12-28T13:54:05.073Z,51.23
2022-12-28T13:56:32.487Z,50.08
2022-12-28T13:59:02.329Z,49.71
2022-12-28T14:01:35.786Z,49.66
2022-12-28T14:04:42.298Z,50.02
2022-12-28T14:06:54.740Z,51.03
2022-12-28T14:09:21.934Z,51.74
2022-12-28T14:11:49.713Z,52.28
2022-12-28T14:14:17.165Z,52.83
2022-12-28T14:16:44.280Z,53.06
2022-12-28T14:19:11.264Z,53.37
2022-12-28T14:21:41.017Z,53.49
2022-12-28T14:24:09.843Z,53.70
2022-12-28T14:26:38.428Z,53.92
2022-12-28T14:29:10.461Z,54.26
2022-12-28T14:31:37.377Z,54.32
2022-12-28T14:34:05.287Z,54.72
2022-12-28T14:36:34.175Z,54.88
2022-12-28T14:39:05.002Z,55.03
2022-12-28T14:41:39.855Z,55.49
2022-12-28T14:44:14.068Z,55.82
2022-12-28T14:46:41.357Z,55.63
2022-12-28T14:49:26.871Z,55.77
2022-12-28T14:51:53.876Z,56.18
2022-12-28T14:54:22.159Z,56.55
2022-12-28T14:57:13.644Z,56.46
2022-12-28T14:59:44.539Z,56.89
2022-12-28T15:02:30.123Z,56.88
2022-12-28T15:05:00.624Z,57.33
2022-12-28T15:07:27.879Z,57.56
2022-12-28T15:09:54.580Z,57.52
2022-12-28T15:12:22.143Z,57.85
2022-12-28T15:14:49.118Z,57.79
2022-12-28T15:17:16.552Z,57.75
2022-12-28T15:19:45.027Z,57.84
2022-12-28T15:22:12.227Z,58.01
2022-12-28T15:24:40.377Z,58.35
2022-12-28T15:27:07.260Z,58.24
2022-12-28T15:32:21.002Z,58.55
2022-12-28T15:34:47.752Z,58.61
2022-12-28T15:37:14.515Z,58.63
2022-12-28T15:39:41.242Z,59.07
2022-12-28T15:42:08.900Z,58.86
2022-12-28T15:44:35.603Z,59.10
2022-12-28T15:47:04.055Z,59.32
2022-12-28T15:49:30.789Z,59.32
2022-12-28T15:51:57.640Z,59.41
2022-12-28T15:54:24.403Z,59.70
2022-12-28T15:56:55.447Z,60.02
2022-12-28T15:59:22.527Z,60.00
2022-12-28T16:01:49.467Z,59.96
2022-12-28T16:04:16.567Z,60.35
2022-12-28T16:06:44.995Z,60.35
2022-12-28T16:09:12.907Z,60.39
2022-12-28T16:11:39.693Z,60.76
2022-12-28T16:14:07.235Z,60.56
2022-12-28T16:16:36.754Z,60.85
2022-12-28T16:19:03.914Z,61.11
2022-12-28T16:21:30.897Z,61.18
2022-12-28T16:23:59.255Z,61.53
2022-12-28T16:26:26.349Z,61.51
2022-12-28T16:28:53.613Z,61.74
2022-12-28T16:31:24.994Z,61.90
2022-12-28T16:33:56.969Z,62.01
2022-12-28T16:36:25.912Z,62.01
2022-12-28T16:38:53.113Z,62.46
2022-12-28T16:41:20.528Z,62.63
2022-12-28T16:43:48.049Z,62.64
2022-12-28T16:46:14.947Z,62.80
2022-12-28T16:48:41.729Z,62.89
2022-12-28T16:51:08.530Z,62.97
2022-12-28T16:53:36.458Z,63.23
2022-12-28T16:56:05.489Z,63.27
2022-12-28T16:58:32.421Z,63.45
2022-12-28T17:01:04.496Z,63.46
2022-12-28T17:03:35.351Z,63.60
2022-12-28T17:06:02.127Z,63.80
2022-12-28T17:08:29.104Z,63.96
2022-12-28T17:10:56.011Z,63.85
2022-12-28T17:13:23.114Z,63.98
2022-12-28T17:15:50.361Z,64.09
2022-12-28T17:18:17.712Z,64.03
2022-12-28T17:20:44.972Z,64.25
2022-12-28T17:23:12.105Z,64.47
2022-12-28T17:25:39.137Z,64.70
2022-12-28T17:28:05.947Z,64.77
2022-12-28T17:30:33.569Z,64.76
2022-12-28T17:33:00.537Z,64.79
2022-12-28T17:35:27.287Z,65.15
2022-12-28T17:37:54.056Z,65.30
2022-12-28T17:40:21.004Z,65.33
2022-12-28T17:42:48.594Z,65.34
2022-12-28T17:45:15.337Z,65.61
2022-12-28T17:47:42.247Z,65.65
2022-12-28T17:50:09.123Z,65.68
2022-12-28T17:52:35.977Z,65.84
2022-12-28T17:55:03.678Z,65.81
2022-12-28T17:57:35.329Z,66.03
2022-12-28T18:00:06.428Z,65.88
2022-12-28T18:02:39.202Z,66.13
2022-12-28T18:05:06.550Z,66.17
2022-12-28T18:07:34.043Z,66.20
2022-12-28T18:10:00.848Z,66.42
2022-12-28T18:12:28.093Z,66.55
2022-12-28T18:14:54.891Z,66.41
2022-12-28T18:17:23.498Z,66.65
2022-12-28T18:19:53.714Z,66.57
2022-12-28T18:22:23.081Z,66.58
2022-12-28T18:24:50.787Z,66.71
2022-12-28T18:27:17.732Z,66.84
2022-12-28T18:29:45.351Z,66.91
2022-12-28T18:32:12.111Z,66.96
2022-12-28T18:34:38.977Z,66.97
2022-12-28T18:37:06.096Z,67.16
2022-12-28T18:39:33.892Z,67.07
2022-12-28T18:42:01.381Z,67.28
2022-12-28T18:44:28.950Z,67.52
2022-12-28T18:46:55.745Z,67.42
2022-12-28T18:49:22.797Z,67.63
2022-12-28T18:51:49.518Z,67.53
2022-12-28T18:54:17.194Z,67.80
2022-12-28T18:56:43.997Z,67.75
2022-12-28T18:59:10.878Z,67.83
2022-12-28T19:02:05.950Z,68.12
2022-12-28T19:04:26.843Z,68.05
2022-12-28T19:06:53.750Z,68.09
2022-12-28T19:09:20.970Z,68.20
2022-12-28T19:11:47.735Z,68.44
2022-12-28T19:14:16.299Z,68.20
2022-12-28T19:16:44.273Z,68.57
2022-12-28T19:19:12.096Z,68.43
2022-12-28T19:21:40.356Z,68.58
2022-12-28T19:24:15.527Z,68.58
2022-12-28T19:26:42.663Z,68.71
2022-12-28T19:29:10.953Z,68.69
2022-12-28T19:31:37.885Z,68.78
2022-12-28T19:34:04.564Z,68.82
2022-12-28T19:36:31.421Z,68.68
2022-12-28T19:38:58.289Z,69.01
2022-12-28T19:41:25.414Z,69.12
2022-12-28T19:43:52.235Z,69.03
2022-12-28T19:46:20.188Z,69.00
2022-12-28T19:48:46.930Z,69.27
2022-12-28T19:51:14.325Z,69.26
2022-12-28T19:53:41.336Z,69.10
2022-12-28T19:56:09.332Z,69.27
2022-12-28T19:58:37.108Z,69.53
2022-12-28T20:01:08.197Z,69.49
2022-12-28T20:03:35.869Z,69.52
2022-12-28T20:06:10.259Z,69.36
2022-12-28T20:08:38.227Z,69.44
2022-12-28T20:11:05.663Z,69.73
2022-12-28T20:13:33.018Z,69.62
2022-12-28T20:16:00.555Z,69.96
2022-12-28T20:18:27.554Z,70.08
2022-12-28T20:23:48.163Z,69.93
2022-12-28T20:26:15.116Z,70.14
2022-12-28T20:28:42.005Z,70.14
2022-12-28T20:31:10.937Z,70.31
2022-12-28T20:33:38.230Z,70.20
2022-12-28T20:36:06.072Z,70.26
2022-12-28T20:38:33.287Z,70.52
2022-12-28T20:41:04.318Z,70.60
2022-12-28T20:43:32.197Z,70.65
2022-12-28T20:45:59.039Z,70.55
2022-12-28T20:48:26.259Z,70.70
2022-12-28T20:50:57.240Z,70.73
2022-12-28T20:53:25.257Z,70.58
2022-12-28T20:55:52.462Z,70.86
2022-12-28T20:58:20.044Z,71.12
2022-12-28T21:00:46.822Z,71.14
2022-12-28T21:03:13.735Z,71.11
2022-12-28T21:05:40.471Z,70.93
2022-12-28T21:08:07.305Z,70.99
2022-12-28T21:10:34.222Z,71.13
2022-12-28T21:13:01.977Z,70.91
2022-12-28T21:15:28.773Z,71.07
2022-12-28T21:17:57.314Z,71.28
2022-12-28T21:20:24.144Z,71.28
2022-12-28T21:22:51.542Z,71.30
2022-12-28T21:25:18.241Z,71.22
2022-12-28T21:27:45.017Z,71.19
2022-12-28T21:30:11.859Z,71.08
2022-12-28T21:32:38.623Z,71.15
2022-12-28T21:35:05.561Z,71.07
2022-12-28T21:37:35.303Z,71.43
2022-12-28T21:40:05.421Z,71.35
2022-12-28T21:42:32.332Z,71.54
2022-12-28T21:44:59.947Z,71.28
2022-12-28T21:47:26.740Z,71.79
2022-12-28T21:49:54.178Z,71.81
2022-12-28T21:52:21.039Z,71.96
2022-12-28T21:54:48.270Z,72.25
2022-12-28T21:57:15.023Z,72.41
2022-12-28T21:59:41.803Z,72.48
2022-12-28T22:02:45.184Z,72.40
2022-12-28T22:05:32.097Z,72.39
2022-12-28T22:08:18.812Z,72.61
2022-12-28T22:11:05.766Z,72.61
2022-12-28T22:13:32.532Z,72.70
2022-12-28T22:15:59.267Z,72.74
2022-12-28T22:21:13.950Z,72.81
2022-12-28T22:23:40.657Z,72.83
2022-12-28T22:26:07.528Z,73.13
2022-12-28T22:28:34.331Z,73.19
2022-12-28T22:31:04.947Z,73.23
2022-12-28T22:33:32.307Z,73.42
2022-12-28T22:36:12.247Z,73.57
2022-12-28T22:38:39.119Z,73.38
2022-12-28T22:41:06.140Z,73.64
2022-12-28T22:43:33.388Z,73.90
2022-12-28T22:46:01.240Z,73.76
2022-12-28T22:48:28.287Z,73.97
2022-12-28T22:50:55.027Z,73.86
2022-12-28T22:53:21.835Z,73.93
2022-12-28T22:55:58.398Z,74.16
2022-12-28T22:58:26.740Z,74.48
2022-12-28T23:01:02.073Z,74.43
2022-12-28T23:03:29.043Z,74.69
2022-12-28T23:05:55.810Z,74.56
2022-12-28T23:08:23.162Z,74.67
2022-12-28T23:10:54.046Z,74.79
2022-12-28T23:13:20.884Z,74.45
2022-12-28T23:16:04.328Z,74.70
2022-12-28T23:18:49.848Z,74.87
2022-12-28T23:21:36.715Z,74.89
2022-12-28T23:24:22.789Z,74.59
2022-12-28T23:27:07.857Z,74.68
2022-12-28T23:29:34.649Z,74.86
2022-12-28T23:32:01.386Z,74.81
2022-12-28T23:34:28.207Z,74.82
2022-12-28T23:36:54.887Z,74.68
2022-12-28T23:39:23.524Z,74.90
2022-12-28T23:41:51.026Z,74.80
2022-12-28T23:44:19.396Z,74.91
2022-12-28T23:46:46.914Z,74.98
2022-12-28T23:49:14.465Z,74.85
2022-12-28T23:51:41.566Z,75.13
2022-12-28T23:54:09.920Z,75.00
2022-12-28T23:56:36.663Z,74.77
2022-12-28T23:59:04.308Z,74.99
